createdAt,value
2018-03-28T00:00:04.894Z,67.97
2018-03-28T00:01:08.242Z,57.55
2018-03-28T00:02:11.602Z,58.10
2018-03-28T00:03:14.946Z,58.72
2018-03-28T00:04:18.316Z,68.35
2018-03-28T00:05:21.719Z,54.78
2018-03-28T00:06:25.048Z,67.15
2018-03-28T00:07:28.396Z,66.30
2018-03-28T00:08:31.701Z,67.87
2018-03-28T00:09:35.039Z,69.32
2018-03-28T00:10:38.388Z,69.93
2018-03-28T00:11:42.013Z,65.60
2018-03-28T00:12:45.361Z,73.82
2018-03-28T00:13:48.739Z,59.78
2018-03-28T00:14:52.052Z,66.93
2018-03-28T00:15:55.373Z,79.87
2018-03-28T00:16:58.739Z,73.87
2018-03-28T00:18:02.598Z,79.47
2018-03-28T00:19:05.924Z,77.45
2018-03-28T00:20:09.253Z,79.15
2018-03-28T00:21:12.623Z,75.97
2018-03-28T00:22:16.272Z,83.68
2018-03-28T00:23:19.589Z,81.05
2018-03-28T00:24:22.922Z,77.00
2018-03-28T00:25:26.251Z,77.45
2018-03-28T00:26:29.566Z,81.18
2018-03-28T00:27:32.925Z,73.45
2018-03-28T00:28:36.233Z,85.65
2018-03-28T00:29:39.581Z,75.85
2018-03-28T00:30:42.975Z,84.30
2018-03-28T00:31:46.297Z,73.50
2018-03-28T00:32:49.750Z,86.10
2018-03-28T00:33:53.069Z,80.72
2018-03-28T00:34:57.796Z,79.70
2018-03-28T00:36:01.180Z,80.12
2018-03-28T00:37:04.509Z,78.10
2018-03-28T00:38:07.880Z,70.22
2018-03-28T00:39:11.194Z,80.10
2018-03-28T00:40:14.609Z,73.05
2018-03-28T00:41:17.960Z,75.82
2018-03-28T00:42:21.295Z,77.32
2018-03-28T00:43:24.642Z,81.00
2018-03-28T00:44:29.771Z,78.32
2018-03-28T00:45:33.135Z,90.78
2018-03-28T00:46:36.517Z,72.78
2018-03-28T00:47:39.908Z,82.25
2018-03-28T00:48:43.234Z,77.28
2018-03-28T00:49:46.575Z,79.10
2018-03-28T00:50:49.885Z,80.80
2018-03-28T00:51:53.256Z,83.85
2018-03-28T00:52:56.573Z,89.70
2018-03-28T00:53:59.912Z,77.12
2018-03-28T00:55:03.277Z,81.90
2018-03-28T00:56:06.620Z,75.10
2018-03-28T00:57:09.969Z,79.25
2018-03-28T00:58:13.319Z,86.15
2018-03-28T00:59:16.717Z,79.22
2018-03-28T01:00:20.108Z,75.37
2018-03-28T01:01:23.434Z,77.70
2018-03-28T01:02:27.237Z,81.18
2018-03-28T01:03:30.551Z,82.28
2018-03-28T01:04:33.892Z,75.00
2018-03-28T01:05:37.256Z,87.40
2018-03-28T01:06:40.565Z,75.30
2018-03-28T01:07:43.948Z,78.72
2018-03-28T01:08:47.266Z,73.12
2018-03-28T01:09:50.659Z,80.20
2018-03-28T01:10:53.990Z,72.90
2018-03-28T01:11:57.353Z,78.03
2018-03-28T01:13:00.685Z,79.18
2018-03-28T01:14:04.005Z,75.62
2018-03-28T01:15:07.395Z,76.87
2018-03-28T01:16:10.726Z,76.82
2018-03-28T01:17:14.043Z,77.03
2018-03-28T01:18:17.364Z,76.15
2018-03-28T01:19:20.679Z,75.68
2018-03-28T01:20:24.017Z,77.07
2018-03-28T01:21:27.382Z,76.68
2018-03-28T01:22:30.768Z,79.93
2018-03-28T01:23:34.120Z,83.07
2018-03-28T01:24:37.445Z,82.85
2018-03-28T01:25:41.264Z,84.18
2018-03-28T01:26:44.597Z,82.50
2018-03-28T01:27:48.703Z,86.07
2018-03-28T01:28:52.019Z,90.50
2018-03-28T01:29:55.354Z,77.95
2018-03-28T01:30:59.833Z,83.60
2018-03-28T01:32:03.137Z,76.78
2018-03-28T01:33:06.492Z,72.65
2018-03-28T01:34:09.824Z,78.85
2018-03-28T01:35:14.484Z,77.37
2018-03-28T01:36:17.849Z,73.70
2018-03-28T01:37:21.179Z,80.35
2018-03-28T01:38:24.487Z,84.75
2018-03-28T01:39:27.842Z,78.05
2018-03-28T01:40:31.152Z,84.03
2018-03-28T01:41:34.557Z,82.18
2018-03-28T01:42:38.009Z,74.37
2018-03-28T01:43:41.367Z,81.00
2018-03-28T01:44:44.676Z,82.25
2018-03-28T01:45:48.011Z,83.35
2018-03-28T01:46:51.381Z,79.15
2018-03-28T01:47:54.672Z,77.55
2018-03-28T01:48:57.992Z,86.03
2018-03-28T01:50:01.369Z,89.97
2018-03-28T01:51:04.703Z,88.00
2018-03-28T01:52:08.047Z,88.80
2018-03-28T01:53:11.385Z,81.53
2018-03-28T01:54:14.715Z,83.93
2018-03-28T01:55:18.849Z,92.90
2018-03-28T01:56:22.232Z,85.00
2018-03-28T01:57:26.169Z,87.55
2018-03-28T01:58:29.492Z,86.60
2018-03-28T01:59:32.900Z,80.38
2018-03-28T02:00:36.227Z,83.18
2018-03-28T02:01:39.549Z,92.45
2018-03-28T02:02:42.905Z,81.60
2018-03-28T02:03:46.235Z,87.65
2018-03-28T02:04:49.607Z,85.43
2018-03-28T02:05:52.906Z,91.95
2018-03-28T02:06:56.293Z,90.18
2018-03-28T02:07:59.582Z,90.60
2018-03-28T02:09:02.898Z,84.95
2018-03-28T02:10:06.219Z,89.95
2018-03-28T02:11:09.531Z,83.93
2018-03-28T02:12:12.860Z,87.35
2018-03-28T02:13:16.256Z,81.53
2018-03-28T02:14:19.560Z,80.62
2018-03-28T02:15:22.891Z,92.97
2018-03-28T02:16:26.227Z,87.43
2018-03-28T02:17:29.627Z,87.28
2018-03-28T02:18:32.954Z,84.68
2018-03-28T02:19:36.342Z,93.97
2018-03-28T02:20:39.738Z,85.75
2018-03-28T02:21:43.064Z,90.60
2018-03-28T02:22:46.382Z,85.78
2018-03-28T02:23:49.736Z,82.12
2018-03-28T02:24:53.086Z,76.53
2018-03-28T02:25:56.415Z,74.87
2018-03-28T02:26:59.764Z,87.88
2018-03-28T02:28:03.084Z,79.07
2018-03-28T02:29:06.423Z,86.35
2018-03-28T02:30:09.761Z,80.15
2018-03-28T02:31:13.109Z,86.65
2018-03-28T02:32:16.457Z,79.30
2018-03-28T02:33:19.818Z,88.40
2018-03-28T02:34:23.159Z,84.30
2018-03-28T02:35:27.395Z,80.28
2018-03-28T02:36:30.732Z,90.15
2018-03-28T02:37:34.051Z,80.30
2018-03-28T02:38:37.397Z,87.18
2018-03-28T02:39:40.865Z,90.95
2018-03-28T02:40:44.182Z,89.85
2018-03-28T02:41:47.502Z,87.47
2018-03-28T02:42:50.807Z,82.43
2018-03-28T02:43:54.127Z,85.47
2018-03-28T02:44:57.477Z,91.05
2018-03-28T02:46:00.813Z,85.00
2018-03-28T02:47:04.190Z,86.15
2018-03-28T02:48:07.548Z,93.40
2018-03-28T02:49:10.897Z,88.00
2018-03-28T02:50:14.331Z,88.85
2018-03-28T02:51:17.638Z,93.05
2018-03-28T02:52:20.950Z,90.10
2018-03-28T02:53:24.271Z,84.15
2018-03-28T02:54:27.600Z,87.30
2018-03-28T02:55:30.938Z,83.53
2018-03-28T02:56:34.883Z,83.37
2018-03-28T02:57:38.247Z,92.57
2018-03-28T02:58:41.568Z,83.95
2018-03-28T02:59:44.877Z,86.10
2018-03-28T03:00:48.240Z,81.60
2018-03-28T03:01:51.568Z,81.78
2018-03-28T03:02:54.913Z,85.43
2018-03-28T03:03:58.238Z,75.15
2018-03-28T03:05:01.638Z,79.45
2018-03-28T03:06:04.985Z,78.70
2018-03-28T03:07:08.297Z,77.05
2018-03-28T03:08:11.662Z,93.53
2018-03-28T03:09:14.982Z,77.95
2018-03-28T03:10:18.301Z,78.72
2018-03-28T03:11:21.664Z,84.93
2018-03-28T03:12:25.177Z,81.82
2018-03-28T03:13:28.515Z,83.93
2018-03-28T03:14:31.920Z,83.93
2018-03-28T03:15:35.232Z,80.03
2018-03-28T03:16:38.689Z,83.22
2018-03-28T03:17:42.717Z,81.72
2018-03-28T03:18:46.023Z,82.03
2018-03-28T03:19:49.391Z,84.53
2018-03-28T03:20:52.781Z,90.85
2018-03-28T03:21:56.137Z,75.40
2018-03-28T03:22:59.465Z,74.37
2018-03-28T03:24:02.800Z,71.43
2018-03-28T03:25:06.116Z,81.37
2018-03-28T03:26:09.428Z,77.50
2018-03-28T03:27:13.438Z,82.18
2018-03-28T03:28:16.760Z,80.55
2018-03-28T03:29:20.083Z,77.32
2018-03-28T03:30:23.401Z,78.60
2018-03-28T03:31:26.713Z,74.30
2018-03-28T03:32:30.073Z,77.05
2018-03-28T03:33:34.940Z,83.78
2018-03-28T03:34:38.297Z,75.00
2018-03-28T03:35:42.426Z,74.00
2018-03-28T03:36:46.399Z,69.05
2018-03-28T03:37:49.759Z,74.40
2018-03-28T03:38:53.519Z,69.03
2018-03-28T03:39:56.895Z,67.35
2018-03-28T03:41:00.213Z,65.12
2018-03-28T03:42:03.628Z,66.90
2018-03-28T03:43:06.968Z,67.65
2018-03-28T03:44:10.297Z,63.60
2018-03-28T03:45:13.860Z,57.38
2018-03-28T03:46:17.191Z,66.45
2018-03-28T03:47:20.504Z,63.30
2018-03-28T03:48:23.859Z,65.18
2018-03-28T03:49:27.206Z,67.15
2018-03-28T03:50:30.612Z,63.60
2018-03-28T03:51:33.923Z,61.05
2018-03-28T03:52:37.253Z,63.80
2018-03-28T03:53:40.664Z,58.95
2018-03-28T03:54:44.004Z,67.35
2018-03-28T03:55:47.322Z,61.37
2018-03-28T03:56:50.639Z,62.03
2018-03-28T03:57:53.978Z,56.47
2018-03-28T03:58:57.350Z,59.53
2018-03-28T04:00:00.730Z,58.95
2018-03-28T04:01:04.060Z,59.22
2018-03-28T04:02:07.395Z,57.78
2018-03-28T04:03:10.743Z,54.95
2018-03-28T04:04:14.124Z,49.42
2018-03-28T04:05:17.426Z,49.55
2018-03-28T04:06:20.789Z,40.22
2018-03-28T04:07:24.112Z,47.70
2018-03-28T04:08:27.454Z,46.42
2018-03-28T04:09:30.831Z,45.97
2018-03-28T04:10:34.320Z,44.10
2018-03-28T04:11:37.624Z,45.47
2018-03-28T04:12:40.948Z,49.20
2018-03-28T04:13:44.362Z,42.38
2018-03-28T04:14:47.745Z,39.33
2018-03-28T04:15:51.103Z,45.17
2018-03-28T04:16:54.427Z,54.47
2018-03-28T04:17:57.762Z,43.65
2018-03-28T04:19:01.084Z,45.90
2018-03-28T04:20:04.439Z,49.25
2018-03-28T04:21:07.755Z,45.12
2018-03-28T04:22:11.067Z,46.58
2018-03-28T04:23:14.415Z,45.40
2018-03-28T04:24:17.741Z,39.67
2018-03-28T04:25:21.108Z,42.70
2018-03-28T04:26:24.424Z,45.38
2018-03-28T04:27:27.770Z,41.53
2018-03-28T04:28:31.064Z,49.10
2018-03-28T04:29:34.388Z,44.92
2018-03-28T04:30:37.735Z,44.60
2018-03-28T04:31:41.097Z,52.00
2018-03-28T04:32:44.403Z,40.42
2018-03-28T04:33:47.746Z,49.95
2018-03-28T04:34:51.069Z,48.65
2018-03-28T04:35:55.496Z,45.25
2018-03-28T04:36:58.835Z,49.83
2018-03-28T04:38:02.147Z,46.97
2018-03-28T04:39:05.501Z,46.92
2018-03-28T04:40:09.291Z,52.20
2018-03-28T04:41:12.634Z,50.95
2018-03-28T04:42:16.031Z,52.33
2018-03-28T04:43:19.379Z,45.78
2018-03-28T04:44:22.696Z,51.45
2018-03-28T04:45:26.066Z,44.90
2018-03-28T04:46:29.510Z,52.75
2018-03-28T04:47:32.848Z,43.40
2018-03-28T04:48:36.217Z,52.58
2018-03-28T04:49:39.528Z,47.50
2018-03-28T04:50:42.854Z,46.05
2018-03-28T04:51:46.353Z,46.03
2018-03-28T04:52:49.672Z,51.10
2018-03-28T04:53:52.997Z,47.30
2018-03-28T04:54:56.386Z,48.80
2018-03-28T04:55:59.824Z,53.42
2018-03-28T04:57:03.226Z,48.47
2018-03-28T04:58:06.579Z,45.17
2018-03-28T04:59:09.940Z,49.90
2018-03-28T05:00:13.250Z,52.53
2018-03-28T05:01:16.597Z,48.78
2018-03-28T05:02:20.001Z,48.42
2018-03-28T05:03:23.352Z,52.13
2018-03-28T05:04:26.721Z,47.88
2018-03-28T05:05:30.062Z,44.45
2018-03-28T05:06:33.365Z,51.63
2018-03-28T05:07:36.717Z,47.13
2018-03-28T05:08:40.071Z,42.33
2018-03-28T05:09:43.394Z,49.08
2018-03-28T05:10:46.721Z,49.08
2018-03-28T05:11:50.087Z,43.83
2018-03-28T05:12:53.493Z,48.65
2018-03-28T05:13:56.832Z,50.90
2018-03-28T05:15:00.211Z,43.08
2018-03-28T05:16:03.599Z,49.78
2018-03-28T05:17:06.997Z,50.88
2018-03-28T05:18:10.637Z,49.65
2018-03-28T05:19:13.970Z,51.00
2018-03-28T05:20:17.352Z,55.97
2018-03-28T05:21:20.689Z,57.95
2018-03-28T05:22:24.063Z,47.00
2018-03-28T05:23:27.450Z,52.53
2018-03-28T05:24:30.788Z,50.85
2018-03-28T05:25:34.181Z,58.20
2018-03-28T05:26:37.482Z,51.78
2018-03-28T05:27:40.827Z,54.13
2018-03-28T05:28:44.211Z,54.22
2018-03-28T05:29:47.546Z,51.30
2018-03-28T05:30:50.893Z,50.78
2018-03-28T05:31:54.220Z,62.47
2018-03-28T05:32:57.576Z,49.72
2018-03-28T05:34:00.932Z,58.92
2018-03-28T05:35:04.277Z,55.50
2018-03-28T05:36:08.591Z,60.75
2018-03-28T05:37:11.887Z,47.10
2018-03-28T05:38:15.230Z,56.05
2018-03-28T05:39:18.638Z,59.25
2018-03-28T05:40:21.937Z,58.72
2018-03-28T05:41:25.308Z,61.45
2018-03-28T05:42:28.692Z,57.95
2018-03-28T05:43:32.012Z,58.75
2018-03-28T05:44:35.380Z,53.75
2018-03-28T05:45:39.002Z,53.92
2018-03-28T05:46:42.442Z,57.30
2018-03-28T05:47:45.765Z,57.97
2018-03-28T05:48:49.081Z,62.08
2018-03-28T05:49:52.452Z,60.80
2018-03-28T05:50:55.819Z,62.80
2018-03-28T05:51:59.172Z,57.47
2018-03-28T05:53:02.630Z,58.60
2018-03-28T05:54:06.000Z,65.03
2018-03-28T05:55:09.379Z,59.65
2018-03-28T05:56:12.704Z,65.32
2018-03-28T05:57:16.036Z,65.07
2018-03-28T05:58:19.347Z,68.75
2018-03-28T05:59:22.673Z,61.17
2018-03-28T06:00:26.062Z,59.08
2018-03-28T06:01:29.386Z,59.65
2018-03-28T06:02:32.791Z,59.55
2018-03-28T06:03:36.827Z,60.92
2018-03-28T06:04:40.245Z,62.38
2018-03-28T06:05:43.625Z,61.75
2018-03-28T06:06:46.966Z,59.55
2018-03-28T06:07:50.314Z,66.35
2018-03-28T06:08:53.635Z,66.68
2018-03-28T06:09:56.957Z,60.72
2018-03-28T06:11:00.290Z,61.40
2018-03-28T06:12:04.059Z,67.60
2018-03-28T06:13:07.408Z,65.65
2018-03-28T06:14:10.802Z,65.45
2018-03-28T06:15:14.113Z,69.55
2018-03-28T06:16:17.500Z,64.45
2018-03-28T06:17:20.940Z,65.70
2018-03-28T06:18:24.408Z,71.37
2018-03-28T06:19:27.776Z,66.62
2018-03-28T06:20:31.137Z,63.25
2018-03-28T06:21:34.507Z,67.62
2018-03-28T06:22:37.835Z,71.25
2018-03-28T06:23:41.149Z,61.00
2018-03-28T06:24:44.635Z,73.03
2018-03-28T06:25:47.906Z,78.30
2018-03-28T06:26:51.228Z,61.75
2018-03-28T06:27:54.553Z,59.97
2018-03-28T06:28:57.921Z,64.60
2018-03-28T06:30:01.510Z,71.82
2018-03-28T06:31:04.838Z,64.10
2018-03-28T06:32:08.216Z,61.65
2018-03-28T06:33:11.641Z,66.75
2018-03-28T06:34:15.054Z,66.10
2018-03-28T06:35:18.389Z,67.37
2018-03-28T06:36:23.459Z,67.18
2018-03-28T06:37:28.333Z,67.12
2018-03-28T06:38:31.756Z,66.68
2018-03-28T06:39:35.099Z,66.72
2018-03-28T06:40:38.432Z,65.37
2018-03-28T06:41:42.713Z,70.15
2018-03-28T06:42:46.046Z,69.32
2018-03-28T06:43:49.399Z,61.90
2018-03-28T06:44:52.857Z,70.95
2018-03-28T06:45:56.182Z,69.68
2018-03-28T06:46:59.553Z,61.67
2018-03-28T06:48:03.653Z,67.55
2018-03-28T06:49:07.375Z,85.18
2018-03-28T06:50:10.749Z,71.78
2018-03-28T06:51:14.087Z,71.60
2018-03-28T06:52:17.463Z,72.07
2018-03-28T06:53:20.792Z,74.35
2018-03-28T06:54:24.106Z,71.05
2018-03-28T06:55:27.453Z,59.55
2018-03-28T06:56:30.792Z,69.40
2018-03-28T06:57:34.477Z,65.97
2018-03-28T06:58:37.842Z,70.15
2018-03-28T06:59:41.197Z,71.65
2018-03-28T07:00:44.506Z,68.53
2018-03-28T07:01:47.833Z,60.83
2018-03-28T07:02:51.166Z,62.92
2018-03-28T07:03:54.533Z,67.75
2018-03-28T07:04:57.860Z,70.32
2018-03-28T07:06:01.275Z,66.47
2018-03-28T07:07:04.581Z,64.43
2018-03-28T07:08:07.933Z,59.60
2018-03-28T07:09:11.276Z,67.78
2018-03-28T07:10:14.796Z,68.43
2018-03-28T07:11:18.876Z,70.10
2018-03-28T07:12:22.231Z,65.72
2018-03-28T07:13:25.591Z,60.92
2018-03-28T07:14:29.027Z,61.20
2018-03-28T07:15:32.332Z,59.80
2018-03-28T07:16:35.696Z,66.40
2018-03-28T07:17:39.023Z,69.62
2018-03-28T07:18:42.376Z,64.57
2018-03-28T07:19:45.742Z,65.68
2018-03-28T07:20:49.673Z,67.43
2018-03-28T07:21:53.006Z,64.80
2018-03-28T07:22:56.331Z,68.82
2018-03-28T07:23:59.653Z,63.38
2018-03-28T07:25:03.089Z,66.25
2018-03-28T07:26:06.573Z,63.92
2018-03-28T07:27:09.882Z,67.90
2018-03-28T07:28:13.208Z,65.00
2018-03-28T07:29:16.521Z,62.35
2018-03-28T07:30:19.900Z,66.05
2018-03-28T07:31:23.241Z,59.45
2018-03-28T07:32:26.769Z,75.97
2018-03-28T07:33:30.964Z,67.12
2018-03-28T07:34:34.317Z,71.07
2018-03-28T07:35:37.661Z,66.47
2018-03-28T07:36:42.231Z,63.05
2018-03-28T07:37:45.583Z,62.60
2018-03-28T07:38:48.941Z,70.28
2018-03-28T07:39:52.240Z,64.53
2018-03-28T07:40:55.638Z,60.72
2018-03-28T07:41:58.983Z,73.82
2018-03-28T07:43:02.308Z,61.63
2018-03-28T07:44:05.692Z,73.90
2018-03-28T07:45:09.174Z,63.13
2018-03-28T07:46:13.301Z,66.45
2018-03-28T07:47:16.629Z,68.37
2018-03-28T07:48:19.961Z,64.47
2018-03-28T07:49:23.383Z,61.58
2018-03-28T07:50:26.686Z,70.82
2018-03-28T07:51:30.084Z,67.93
2018-03-28T07:52:34.077Z,75.78
2018-03-28T07:53:37.395Z,65.53
2018-03-28T07:54:41.674Z,72.25
2018-03-28T07:55:45.005Z,71.95
2018-03-28T07:56:48.351Z,70.40
2018-03-28T07:57:51.698Z,69.25
2018-03-28T07:58:55.183Z,67.57
2018-03-28T07:59:58.655Z,70.30
2018-03-28T08:01:02.022Z,73.22
2018-03-28T08:02:05.399Z,85.35
2018-03-28T08:03:08.813Z,76.22
2018-03-28T08:04:12.144Z,69.97
2018-03-28T08:05:15.564Z,85.00
2018-03-28T08:06:18.984Z,87.00
2018-03-28T08:07:22.326Z,77.85
2018-03-28T08:08:26.588Z,80.62
2018-03-28T08:09:29.969Z,78.80
2018-03-28T08:10:33.241Z,80.38
2018-03-28T08:11:36.616Z,86.68
2018-03-28T08:12:39.991Z,84.18
2018-03-28T08:13:43.329Z,87.45
2018-03-28T08:14:46.642Z,77.22
2018-03-28T08:15:50.151Z,72.32
2018-03-28T08:16:53.469Z,85.70
2018-03-28T08:17:57.027Z,75.28
2018-03-28T08:19:00.384Z,78.12
2018-03-28T08:20:03.741Z,77.30
2018-03-28T08:21:07.145Z,79.57
2018-03-28T08:22:10.463Z,72.90
2018-03-28T08:23:14.124Z,65.03
2018-03-28T08:24:17.747Z,73.20
2018-03-28T08:25:21.081Z,77.30
2018-03-28T08:26:24.424Z,72.55
2018-03-28T08:27:27.766Z,75.72
2018-03-28T08:28:31.148Z,76.37
2018-03-28T08:29:34.480Z,73.25
2018-03-28T08:30:37.801Z,73.00
2018-03-28T08:31:41.271Z,63.85
2018-03-28T08:32:44.598Z,62.88
2018-03-28T08:33:47.954Z,65.53
2018-03-28T08:34:51.265Z,68.50
2018-03-28T08:35:54.586Z,69.05
2018-03-28T08:36:58.878Z,65.43
2018-03-28T08:38:02.222Z,63.15
2018-03-28T08:39:07.508Z,70.72
2018-03-28T08:40:10.828Z,69.68
2018-03-28T08:41:14.139Z,66.60
2018-03-28T08:42:17.542Z,69.35
2018-03-28T08:43:20.884Z,69.28
2018-03-28T08:44:24.555Z,71.50
2018-03-28T08:45:27.848Z,67.65
2018-03-28T08:46:31.165Z,65.70
2018-03-28T08:47:34.530Z,66.15
2018-03-28T08:48:37.918Z,61.15
2018-03-28T08:49:41.341Z,62.65
2018-03-28T08:50:44.700Z,70.80
2018-03-28T08:51:48.068Z,58.20
2018-03-28T08:52:51.389Z,60.85
2018-03-28T08:53:54.704Z,71.45
2018-03-28T08:54:58.091Z,64.32
2018-03-28T08:56:01.395Z,62.75
2018-03-28T08:57:04.797Z,72.45
2018-03-28T08:58:08.112Z,62.28
2018-03-28T08:59:11.436Z,64.12
2018-03-28T09:00:14.825Z,63.17
2018-03-28T09:01:18.227Z,64.53
2018-03-28T09:02:21.569Z,64.97
2018-03-28T09:03:24.905Z,60.83
2018-03-28T09:04:28.389Z,69.18
2018-03-28T09:05:31.749Z,62.25
2018-03-28T09:06:35.105Z,68.55
2018-03-28T09:07:38.410Z,65.10
2018-03-28T09:08:41.760Z,64.03
2018-03-28T09:09:45.113Z,62.03
2018-03-28T09:10:48.479Z,66.30
2018-03-28T09:11:51.842Z,65.15
2018-03-28T09:12:55.198Z,61.78
2018-03-28T09:13:58.528Z,65.82
2018-03-28T09:15:01.874Z,64.05
2018-03-28T09:16:05.257Z,68.85
2018-03-28T09:17:08.560Z,70.90
2018-03-28T09:18:11.888Z,69.95
2018-03-28T09:19:15.234Z,68.45
2018-03-28T09:20:18.577Z,61.50
2018-03-28T09:21:21.961Z,72.12
2018-03-28T09:22:25.343Z,77.20
2018-03-28T09:23:28.667Z,74.07
2018-03-28T09:24:31.988Z,71.05
2018-03-28T09:25:35.380Z,73.18
2018-03-28T09:26:38.708Z,76.53
2018-03-28T09:27:42.028Z,76.78
2018-03-28T09:28:45.364Z,69.78
2018-03-28T09:29:48.692Z,69.32
2018-03-28T09:30:52.006Z,68.35
2018-03-28T09:31:55.340Z,78.78
2018-03-28T09:33:00.295Z,82.45
2018-03-28T09:34:03.635Z,69.20
2018-03-28T09:35:06.963Z,67.82
2018-03-28T09:36:10.281Z,68.65
2018-03-28T09:37:15.682Z,68.15
2018-03-28T09:38:19.000Z,67.07
2018-03-28T09:39:22.320Z,75.97
2018-03-28T09:40:25.699Z,74.47
2018-03-28T09:41:29.010Z,63.53
2018-03-28T09:42:32.360Z,62.85
2018-03-28T09:43:35.697Z,64.40
2018-03-28T09:44:39.031Z,68.15
2018-03-28T09:45:42.399Z,70.70
2018-03-28T09:46:45.784Z,68.35
2018-03-28T09:47:49.142Z,60.97
2018-03-28T09:48:52.617Z,68.57
2018-03-28T09:49:55.960Z,64.65
2018-03-28T09:50:59.318Z,68.22
2018-03-28T09:52:07.322Z,70.47
2018-03-28T09:53:13.824Z,66.40
2018-03-28T09:54:17.376Z,61.92
2018-03-28T09:55:22.724Z,69.72
2018-03-28T09:56:26.066Z,58.15
2018-03-28T09:57:29.359Z,56.10
2018-03-28T09:58:32.696Z,61.17
2018-03-28T09:59:36.016Z,50.80
2018-03-28T10:00:39.364Z,57.88
2018-03-28T10:01:48.203Z,54.35
2018-03-28T10:02:51.526Z,56.15
2018-03-28T10:04:00.515Z,56.37
2018-03-28T10:05:03.882Z,50.03
2018-03-28T10:06:07.188Z,51.85
2018-03-28T10:07:10.528Z,50.00
2018-03-28T10:08:13.859Z,54.78
2018-03-28T10:09:17.298Z,54.58
2018-03-28T10:10:20.816Z,46.97
2018-03-28T10:11:24.132Z,51.17
2018-03-28T10:12:27.452Z,47.33
2018-03-28T10:13:30.872Z,44.38
2018-03-28T10:14:34.200Z,53.33
2018-03-28T10:15:37.641Z,41.17
2018-03-28T10:16:40.951Z,53.72
2018-03-28T10:17:44.310Z,45.92
2018-03-28T10:18:47.632Z,46.13
2018-03-28T10:19:50.991Z,51.53
2018-03-28T10:20:54.399Z,51.30
2018-03-28T10:21:57.755Z,46.85
2018-03-28T10:23:01.052Z,49.00
2018-03-28T10:24:04.743Z,47.15
2018-03-28T10:25:08.557Z,50.45
2018-03-28T10:26:11.986Z,48.50
2018-03-28T10:27:15.313Z,45.78
2018-03-28T10:28:18.654Z,41.80
2018-03-28T10:29:22.042Z,46.78
2018-03-28T10:30:29.574Z,53.20
2018-03-28T10:31:33.659Z,46.28
2018-03-28T10:32:37.855Z,44.67
2018-03-28T10:33:41.198Z,41.47
2018-03-28T10:34:44.741Z,41.55
2018-03-28T10:35:48.152Z,43.55
2018-03-28T10:36:51.481Z,54.60
2018-03-28T10:37:54.832Z,50.63
2018-03-28T10:38:58.151Z,47.92
2018-03-28T10:40:01.464Z,49.92
2018-03-28T10:41:04.810Z,48.95
2018-03-28T10:42:08.164Z,50.50
2018-03-28T10:43:11.498Z,56.35
2018-03-28T10:44:14.831Z,48.97
2018-03-28T10:45:18.154Z,48.08
2018-03-28T10:46:21.564Z,45.15
2018-03-28T10:47:24.864Z,45.03
2018-03-28T10:48:28.279Z,49.08
2018-03-28T10:49:31.654Z,52.75
2018-03-28T10:50:35.056Z,49.55
2018-03-28T10:51:38.455Z,47.33
2018-03-28T10:52:41.764Z,52.80
2018-03-28T10:53:45.182Z,53.15
2018-03-28T10:54:48.527Z,54.65
2018-03-28T10:55:52.029Z,48.40
2018-03-28T10:56:55.400Z,46.17
2018-03-28T10:57:58.725Z,49.97
2018-03-28T10:59:02.104Z,48.55
2018-03-28T11:00:05.412Z,49.33
2018-03-28T11:01:08.728Z,47.15
2018-03-28T11:02:12.075Z,46.08
2018-03-28T11:03:15.438Z,44.65
2018-03-28T11:04:18.752Z,54.70
2018-03-28T11:05:22.089Z,52.33
2018-03-28T11:06:25.442Z,51.90
2018-03-28T11:07:28.804Z,47.08
2018-03-28T11:08:32.121Z,51.45
2018-03-28T11:09:35.509Z,53.95
2018-03-28T11:10:38.814Z,51.70
2018-03-28T11:11:42.127Z,55.88
2018-03-28T11:12:45.585Z,47.17
2018-03-28T11:13:48.921Z,52.30
2018-03-28T11:14:52.258Z,60.22
2018-03-28T11:15:55.632Z,49.83
2018-03-28T11:16:58.920Z,48.85
2018-03-28T11:18:02.362Z,51.47
2018-03-28T11:19:05.654Z,44.65
2018-03-28T11:20:08.975Z,49.13
2018-03-28T11:21:12.335Z,44.38
2018-03-28T11:22:15.641Z,45.42
2018-03-28T11:23:19.213Z,38.17
2018-03-28T11:24:22.653Z,47.17
2018-03-28T11:25:25.944Z,41.95
2018-03-28T11:26:29.340Z,46.22
2018-03-28T11:27:32.655Z,46.95
2018-03-28T11:28:35.985Z,46.70
2018-03-28T11:29:39.303Z,35.85
2018-03-28T11:30:42.678Z,38.15
2018-03-28T11:31:45.967Z,37.60
2018-03-28T11:32:49.321Z,39.88
2018-03-28T11:33:52.692Z,39.30
2018-03-28T11:34:56.049Z,35.20
2018-03-28T11:35:59.361Z,38.22
2018-03-28T11:37:02.769Z,36.85
2018-03-28T11:38:08.015Z,35.35
2018-03-28T11:39:11.446Z,35.95
2018-03-28T11:40:14.730Z,35.35
2018-03-28T11:41:18.045Z,34.08
2018-03-28T11:42:21.376Z,35.28
2018-03-28T11:43:24.700Z,36.40
2018-03-28T11:44:28.088Z,35.65
2018-03-28T11:45:31.421Z,41.03
2018-03-28T11:46:34.755Z,33.60
2018-03-28T11:47:38.103Z,33.95
2018-03-28T11:48:41.470Z,33.42
2018-03-28T11:49:45.469Z,36.00
2018-03-28T11:50:48.839Z,31.20
2018-03-28T11:51:52.903Z,32.05
2018-03-28T11:52:56.239Z,36.35
2018-03-28T11:53:59.625Z,37.13
2018-03-28T11:55:02.972Z,39.03
2018-03-28T11:56:06.288Z,38.50
2018-03-28T11:57:09.993Z,36.28
2018-03-28T11:58:13.368Z,32.13
2018-03-28T11:59:16.738Z,31.90
2018-03-28T12:00:21.865Z,33.22
2018-03-28T12:01:25.190Z,33.88
2018-03-28T12:02:28.505Z,31.58
2018-03-28T12:03:31.847Z,35.03
2018-03-28T12:04:35.238Z,43.58
2018-03-28T12:05:38.581Z,29.40
2018-03-28T12:06:42.087Z,36.65
2018-03-28T12:07:45.412Z,36.95
2018-03-28T12:08:48.743Z,45.42
2018-03-28T12:09:52.100Z,104.95
2018-03-28T12:10:55.465Z,39.03
2018-03-28T12:11:59.659Z,40.95
2018-03-28T12:13:03.018Z,43.47
2018-03-28T12:14:06.354Z,39.03
2018-03-28T12:15:09.747Z,37.97
2018-03-28T12:16:13.188Z,35.05
2018-03-28T12:17:16.524Z,40.42
2018-03-28T12:18:19.878Z,42.67
2018-03-28T12:19:23.212Z,42.83
2018-03-28T12:20:26.591Z,45.33
2018-03-28T12:21:29.892Z,40.15
2018-03-28T12:22:33.251Z,40.10
2018-03-28T12:23:36.623Z,44.28
2018-03-28T12:24:39.944Z,39.10
2018-03-28T12:25:43.291Z,39.38
2018-03-28T12:26:46.723Z,47.50
2018-03-28T12:27:50.023Z,37.28
2018-03-28T12:28:53.345Z,39.25
2018-03-28T12:29:56.715Z,39.90
2018-03-28T12:31:01.016Z,45.95
2018-03-28T12:32:04.379Z,40.00
2018-03-28T12:33:07.766Z,40.20
2018-03-28T12:34:11.770Z,37.65
2018-03-28T12:35:15.159Z,37.38
2018-03-28T12:36:19.209Z,39.90
2018-03-28T12:37:22.590Z,37.63
2018-03-28T12:38:25.944Z,45.42
2018-03-28T12:39:29.255Z,39.50
2018-03-28T12:40:32.561Z,39.83
2018-03-28T12:41:35.882Z,46.33
2018-03-28T12:42:39.251Z,45.78
2018-03-28T12:43:42.576Z,37.03
2018-03-28T12:44:45.950Z,40.92
2018-03-28T12:45:49.276Z,35.22
2018-03-28T12:46:53.035Z,43.63
2018-03-28T12:47:56.625Z,47.38
2018-03-28T12:49:00.006Z,34.55
2018-03-28T12:50:03.560Z,34.58
2018-03-28T12:51:06.915Z,43.38
2018-03-28T12:52:10.339Z,37.50
2018-03-28T12:53:13.666Z,37.42
2018-03-28T12:54:16.981Z,37.45
2018-03-28T12:55:20.501Z,43.25
2018-03-28T12:56:23.657Z,37.25
2018-03-28T12:57:27.061Z,37.83
2018-03-28T12:58:30.431Z,38.78
2018-03-28T12:59:33.936Z,33.97
2018-03-28T13:00:37.272Z,36.00
2018-03-28T13:01:40.647Z,41.22
2018-03-28T13:02:43.964Z,37.30
2018-03-28T13:03:47.332Z,45.95
2018-03-28T13:04:50.651Z,36.53
2018-03-28T13:05:53.977Z,34.38
2018-03-28T13:06:57.315Z,34.15
2018-03-28T13:08:00.737Z,33.22
2018-03-28T13:09:04.049Z,33.38
2018-03-28T13:10:07.496Z,28.08
2018-03-28T13:11:10.766Z,26.17
2018-03-28T13:12:14.075Z,23.87
2018-03-28T13:13:17.395Z,21.92
2018-03-28T13:14:20.789Z,21.50
2018-03-28T13:15:24.180Z,20.05
2018-03-28T13:16:27.515Z,20.98
2018-03-28T13:17:30.840Z,20.12
2018-03-28T13:18:34.184Z,18.30
2018-03-28T13:19:37.549Z,17.83
2018-03-28T13:20:40.936Z,11.77
2018-03-28T13:21:44.258Z,11.90
2018-03-28T13:22:47.636Z,21.40
2018-03-28T13:23:50.987Z,10.70
2018-03-28T13:24:54.371Z,14.02
2018-03-28T13:25:57.743Z,13.65
2018-03-28T13:27:01.062Z,12.18
2018-03-28T13:28:04.450Z,14.50
2018-03-28T13:29:08.632Z,15.93
2018-03-28T13:30:12.062Z,12.07
2018-03-28T13:31:15.404Z,12.37
2018-03-28T13:32:18.725Z,10.77
2018-03-28T13:33:22.065Z,17.40
2018-03-28T13:34:25.397Z,10.30
2018-03-28T13:35:28.883Z,12.52
2018-03-28T13:36:32.256Z,19.98